Accueil
METAR-TAF:

METAR-TAF

Aéroports :

Yaoundé, Cameroun

Aéroport international de Yaoundé-Nsimalen

latitude: 03-50N, longitude: 011-31E, altitude: 751 m

Observation

Le bulletin a été fait il y a 1 heure et 17 minutes, à 04:00 UTC
Vent 3 kt de ouest, variant entre ouest/sud-ouest et nord/nord-ouest
Température 22°C
Humidité 94%
Pression 1015 hPa
Visibilité: 7000 m
Nuages épars à une hauteur de 300 ft
Nuages fragmentés à une hauteur de 600 ft

METAR: FKYS 260400Z 28003KT 240V330 7000 SCT003 BKN006 22/21 Q1015 NOSIG

Heure: 06:17 (05:17 UTC)


TAF: absent

Observations et prévisions météorologiques de plus de 4000 aéroports (messages METAR et TAF).

Les stations disponibles sont représentées par des disques jaunes et rouges sur la carte.

Passer la souris dessus pour voir le nom de la station.

Cliquer dessus pour voir les observations et prévisions météorologiques.

Pour changer de carte: cliquez sur les boutons verts avec une croix noire pour zoomer, sur le bouton vert avec un tiret pour effectuer un zoom arrière, ou sur les flèches vertes pour les cartes adjacentes.


METAR-TAF: